Terminal Aerodrome Forecast
Issued by NWS Duluth, MN

Home | Current Version | Previous Version | Text Only | Print | Product List | Glossary On
Versions: 1 2 3 4 5 6 7 8 9 10 11 12 13 14 15 16 17 18 19 20 21 22 23 24 25 26 27
944
FTUS43 KDLH 260537
TAFINL
TAF
KINL 260537Z 2606/2706 16007KT P6SM OVC016
     FM260900 15004KT P6SM OVC013
     FM261600 VRB04KT P6SM BKN015 BKN025
     FM261900 33004KT P6SM SCT025 BKN120=

USA.gov is the U.S. government's official web portal to all federal, state and local government web resources and services.